Time;durP1;ratioP1;P1;durP2;ratioP2;P2;SDS_P1;SDS_P2;PMS_P1;PMS_P2;Temp;Humidity;BMP_temperature;BMP_pressure;BME280_temperature;BME280_humidity;BME280_pressure;Samples;Min_cycle;Max_cycle;Signal;HPM_P1;HPM_P2
2022/01/11 00:00:50;;;;;;;199.45;31.55;;;1.40;99.90;;;;;;5113102;28;20176;-53
2022/01/11 00:03:19;;;;;;;101.57;23.67;;;1.50;99.90;;;;;;5113308;28;20491;-51
2022/01/11 00:05:55;;;;;;;177.68;27.80;;;1.70;99.90;;;;;;5113021;28;20243;-51
2022/01/11 00:08:29;;;;;;;129.77;26.63;;;1.60;99.90;;;;;;5113216;28;20177;-51
2022/01/11 00:11:02;;;;;;;141.77;26.75;;;1.60;99.90;;;;;;5113179;28;20195;-49
2022/01/11 00:13:28;;;;;;;126.72;25.65;;;1.70;99.90;;;;;;5113131;28;20253;-50
2022/01/11 00:15:53;;;;;;;132.60;27.77;;;1.70;99.90;;;;;;5112718;28;20208;-50
2022/01/11 00:18:19;;;;;;;114.85;25.75;;;1.70;99.90;;;;;;5112686;28;20161;-50
2022/01/11 00:20:45;;;;;;;116.40;27.83;;;1.80;99.90;;;;;;5112735;28;20697;-50
2022/01/11 00:25:42;;;;;;;133.43;33.95;;;1.80;99.90;;;;;;5113029;28;20161;-51
2022/01/11 00:28:09;;;;;;;98.65;27.65;;;1.70;99.90;;;;;;5112891;28;20255;-51
2022/01/11 00:30:38;;;;;;;154.75;33.78;;;1.80;99.90;;;;;;5112574;28;20161;-51
2022/01/11 00:33:09;;;;;;;151.50;30.33;;;1.70;99.90;;;;;;5112631;28;20641;-51
2022/01/11 00:35:43;;;;;;;131.77;29.63;;;1.70;99.90;;;;;;5112523;28;20679;-51
2022/01/11 00:38:17;;;;;;;92.57;27.20;;;1.70;99.90;;;;;;5112764;28;20171;-51
2022/01/11 00:40:51;;;;;;;154.40;29.08;;;1.70;99.90;;;;;;5112430;28;20571;-51
2022/01/11 00:43:18;;;;;;;105.10;27.45;;;1.60;99.90;;;;;;5112375;28;20256;-51
2022/01/11 00:45:45;;;;;;;116.32;27.80;;;1.60;99.90;;;;;;5112321;28;20163;-51
2022/01/11 00:48:10;;;;;;;111.65;25.70;;;1.60;99.90;;;;;;5112499;28;20169;-51
2022/01/11 00:50:37;;;;;;;133.85;30.65;;;1.50;99.90;;;;;;5112403;28;20172;-52
2022/01/11 00:53:04;;;;;;;97.22;28.20;;;1.50;99.90;;;;;;5112351;28;20164;-51
2022/01/11 00:55:30;;;;;;;144.27;25.13;;;1.50;99.90;;;;;;5094417;28;20694;-51
2022/01/11 00:57:55;;;;;;;173.00;26.33;;;1.40;99.90;;;;;;5112385;28;20175;-51
2022/01/11 01:00:21;;;;;;;129.13;24.98;;;1.40;99.90;;;;;;5115742;28;20173;-51
2022/01/11 01:02:46;;;;;;;113.72;25.98;;;1.30;99.90;;;;;;5116401;28;20168;-51
2022/01/11 01:05:17;;;;;;;103.95;25.80;;;1.30;99.90;;;;;;5116217;28;20176;-51
2022/01/11 01:07:43;;;;;;;104.05;24.83;;;1.20;99.90;;;;;;5116497;28;20160;-51
2022/01/11 01:10:19;;;;;;;113.13;25.52;;;1.10;99.90;;;;;;5116439;28;20168;-51
2022/01/11 01:12:45;;;;;;;119.00;27.52;;;1.10;99.90;;;;;;5116219;28;20240;-51
2022/01/11 01:15:11;;;;;;;133.93;24.45;;;1.10;99.90;;;;;;5116250;28;20610;-50
2022/01/11 01:17:36;;;;;;;91.00;24.88;;;1.10;99.90;;;;;;5097993;28;20165;-50
2022/01/11 01:20:04;;;;;;;87.90;24.10;;;1.10;99.90;;;;;;5116172;28;20156;-51
2022/01/11 01:22:29;;;;;;;96.10;25.02;;;1.10;99.90;;;;;;5116659;28;20564;-50
2022/01/11 01:24:55;;;;;;;84.07;24.58;;;1.10;99.90;;;;;;5116104;28;20251;-50
2022/01/11 01:27:20;;;;;;;85.15;28.23;;;1.60;99.90;;;;;;5116130;28;20206;-51
2022/01/11 01:29:46;;;;;;;98.43;26.42;;;1.30;99.90;;;;;;5116002;28;20237;-51
2022/01/11 01:32:11;;;;;;;118.50;27.38;;;1.40;99.90;;;;;;5116008;28;20206;-50
2022/01/11 01:34:37;;;;;;;75.13;25.27;;;1.30;99.90;;;;;;5115842;28;20212;-51
2022/01/11 01:37:03;;;;;;;108.88;28.20;;;1.20;99.90;;;;;;5115892;28;20181;-49
2022/01/11 01:39:29;;;;;;;90.50;27.55;;;1.30;99.90;;;;;;5116143;28;20214;-50
2022/01/11 01:41:54;;;;;;;78.90;27.17;;;1.30;99.90;;;;;;5115808;27;20552;-50
2022/01/11 01:44:21;;;;;;;80.60;26.65;;;1.30;99.90;;;;;;5115848;28;20157;-50
2022/01/11 01:46:47;;;;;;;124.80;26.55;;;1.40;99.90;;;;;;5115706;28;20579;-51
2022/01/11 01:49:17;;;;;;;87.00;28.95;;;1.40;99.90;;;;;;5115893;28;20234;-51
2022/01/11 01:51:45;;;;;;;78.57;26.23;;;1.50;99.90;;;;;;5097359;28;20173;-51
2022/01/11 01:54:11;;;;;;;83.55;26.92;;;1.50;99.90;;;;;;5115534;28;20245;-51
2022/01/11 01:56:37;;;;;;;55.50;24.00;;;1.50;99.90;;;;;;5115503;28;20169;-51
2022/01/11 01:59:03;;;;;;;89.53;26.88;;;1.50;99.90;;;;;;5115434;28;20250;-50
2022/01/11 02:01:32;;;;;;;64.68;24.55;;;1.50;99.90;;;;;;5115730;28;20191;-51
2022/01/11 02:03:57;;;;;;;64.60;25.70;;;1.50;99.90;;;;;;5097446;28;20168;-51
2022/01/11 02:06:24;;;;;;;66.40;24.20;;;1.60;99.90;;;;;;5115317;28;20161;-50
2022/01/11 02:08:50;;;;;;;90.80;26.25;;;1.50;99.90;;;;;;5115262;28;20624;-51
2022/01/11 02:11:17;;;;;;;68.28;24.48;;;1.40;99.90;;;;;;5115043;28;20179;-50
2022/01/11 02:13:45;;;;;;;65.40;25.77;;;1.40;99.90;;;;;;5114993;28;20216;-51
2022/01/11 02:16:12;;;;;;;69.93;26.15;;;1.40;99.90;;;;;;5096870;28;20171;-51
2022/01/11 02:18:40;;;;;;;74.93;26.70;;;1.30;99.90;;;;;;5115021;28;20632;-51
2022/01/11 02:21:06;;;;;;;68.35;24.88;;;1.30;99.90;;;;;;5115265;28;20259;-51
2022/01/11 02:23:32;;;;;;;62.03;26.77;;;1.30;99.90;;;;;;5115138;28;20244;-50
2022/01/11 02:25:59;;;;;;;64.47;25.30;;;1.50;99.90;;;;;;5115243;28;20173;-50
2022/01/11 02:28:27;;;;;;;55.33;24.67;;;1.50;99.90;;;;;;5115173;28;20165;-51
2022/01/11 02:30:53;;;;;;;73.03;25.23;;;1.50;99.90;;;;;;5114882;28;20157;-51
2022/01/11 02:33:44;;;;;;;53.40;24.85;;;1.60;99.90;;;;;;5114775;28;20157;-50
2022/01/11 02:36:18;;;;;;;59.45;25.98;;;1.70;99.90;;;;;;5115060;28;20196;-50
2022/01/11 02:38:46;;;;;;;64.90;26.10;;;1.70;99.90;;;;;;5114733;28;20164;-50
2022/01/11 02:41:11;;;;;;;63.83;25.60;;;1.60;99.90;;;;;;5114915;28;20168;-50
2022/01/11 02:43:47;;;;;;;63.25;24.90;;;1.70;99.90;;;;;;5114591;28;20161;-49
2022/01/11 02:46:13;;;;;;;56.95;26.63;;;1.60;99.90;;;;;;5114781;28;20511;-51
2022/01/11 02:48:39;;;;;;;77.47;26.08;;;1.50;99.90;;;;;;5114581;28;20172;-51
2022/01/11 02:51:05;;;;;;;57.88;25.15;;;1.60;99.90;;;;;;5114730;28;20180;-51
2022/01/11 02:53:31;;;;;;;62.13;25.77;;;1.50;99.90;;;;;;5114726;28;20177;-51
2022/01/11 02:55:57;;;;;;;68.82;29.10;;;1.50;99.90;;;;;;5114309;28;20204;-51
2022/01/11 02:58:23;;;;;;;59.53;26.05;;;1.50;99.90;;;;;;5114368;28;20194;-51
2022/01/11 03:00:49;;;;;;;69.07;28.05;;;1.60;99.90;;;;;;5114348;28;20196;-51
2022/01/11 03:03:20;;;;;;;66.30;26.60;;;1.50;99.90;;;;;;5114302;28;20185;-50
2022/01/11 03:05:57;;;;;;;64.38;26.45;;;1.50;99.90;;;;;;5114543;28;20180;-50
2022/01/11 03:08:25;;;;;;;57.47;24.70;;;1.40;99.90;;;;;;5095932;28;20176;-51
2022/01/11 03:10:51;;;;;;;60.15;27.92;;;1.60;99.90;;;;;;5114326;28;20546;-51
2022/01/11 03:13:18;;;;;;;66.88;28.67;;;1.60;99.90;;;;;;5113835;28;20322;-51
2022/01/11 03:15:45;;;;;;;54.42;25.00;;;1.70;99.90;;;;;;5113968;28;20540;-51
2022/01/11 03:18:10;;;;;;;59.08;26.92;;;1.70;99.90;;;;;;5113958;28;20161;-51
2022/01/11 03:20:37;;;;;;;71.15;27.15;;;1.70;99.90;;;;;;5113879;28;20179;-50
2022/01/11 03:23:04;;;;;;;57.08;25.63;;;1.80;99.90;;;;;;5113556;28;20266;-50
2022/01/11 03:25:30;;;;;;;56.20;25.23;;;1.80;99.90;;;;;;5114161;28;20172;-50
2022/01/11 03:27:55;;;;;;;103.82;29.27;;;1.90;99.90;;;;;;5113924;28;20164;-51
2022/01/11 03:30:21;;;;;;;71.05;24.55;;;1.70;99.90;;;;;;5113690;28;20172;-51
2022/01/11 03:32:47;;;;;;;76.85;26.55;;;1.60;99.90;;;;;;5113686;28;20663;-51
2022/01/11 03:35:14;;;;;;;78.47;27.98;;;1.70;99.90;;;;;;5113821;28;20216;-51
2022/01/11 03:37:42;;;;;;;94.10;26.90;;;1.50;99.90;;;;;;5113595;28;20240;-51
2022/01/11 03:40:11;;;;;;;85.00;26.63;;;1.50;99.90;;;;;;5113492;28;20172;-51
2022/01/11 03:42:38;;;;;;;103.18;31.95;;;1.50;99.90;;;;;;5113831;28;20610;-51
2022/01/11 03:45:05;;;;;;;76.72;24.85;;;1.60;99.90;;;;;;5113672;28;20204;-51
2022/01/11 03:47:31;;;;;;;64.45;26.25;;;1.50;99.90;;;;;;5113884;28;20195;-50
2022/01/11 03:49:57;;;;;;;64.45;23.75;;;1.60;99.90;;;;;;5113605;28;20637;-50
2022/01/11 03:52:22;;;;;;;77.88;25.23;;;1.60;99.90;;;;;;5113256;28;20198;-50
2022/01/11 03:57:17;;;;;;;87.93;24.60;;;1.50;99.90;;;;;;5113430;28;20165;-50
2022/01/11 03:59:43;;;;;;;91.85;25.25;;;1.30;99.90;;;;;;5113111;28;20168;-51
2022/01/11 04:02:09;;;;;;;112.25;26.08;;;1.30;99.90;;;;;;5113638;28;20168;-50
2022/01/11 04:04:34;;;;;;;110.38;27.45;;;1.30;99.90;;;;;;5113101;28;20160;-51
2022/01/11 04:07:00;;;;;;;77.60;25.33;;;1.40;99.90;;;;;;5113547;28;20169;-51
2022/01/11 04:09:25;;;;;;;95.60;25.90;;;1.40;99.90;;;;;;5112925;28;20168;-51
2022/01/11 04:11:51;;;;;;;86.72;25.15;;;1.20;99.90;;;;;;5112696;28;20165;-50
2022/01/11 04:14:17;;;;;;;80.80;25.90;;;1.30;99.90;;;;;;5112808;28;20197;-51
2022/01/11 04:16:43;;;;;;;73.30;23.02;;;1.10;99.90;;;;;;5112796;28;20200;-51
2022/01/11 04:19:08;;;;;;;76.97;23.92;;;1.10;99.90;;;;;;5112842;28;20240;-51
2022/01/11 04:21:34;;;;;;;67.75;23.08;;;1.10;99.90;;;;;;5112755;28;20170;-51
2022/01/11 04:23:59;;;;;;;80.97;25.30;;;1.10;99.90;;;;;;5113283;28;20220;-50
2022/01/11 04:26:25;;;;;;;89.50;29.63;;;1.10;99.90;;;;;;5112946;28;20187;-51
2022/01/11 04:28:50;;;;;;;83.43;27.10;;;1.20;99.90;;;;;;5112703;28;20192;-50
2022/01/11 04:31:16;;;;;;;65.45;24.17;;;1.30;99.90;;;;;;5112567;28;20172;-51
2022/01/11 04:33:43;;;;;;;66.07;23.58;;;1.30;99.90;;;;;;5111704;28;20199;-51
2022/01/11 04:36:10;;;;;;;55.30;24.23;;;1.40;99.90;;;;;;5112466;28;20675;-49
2022/01/11 04:38:36;;;;;;;101.15;24.42;;;1.50;99.90;;;;;;5112417;28;20176;-50
2022/01/11 04:41:02;;;;;;;162.85;29.27;;;1.40;99.90;;;;;;5112878;28;20534;-51
2022/01/11 04:43:28;;;;;;;104.28;23.83;;;1.40;99.90;;;;;;5112874;28;20172;-50
2022/01/11 04:45:53;;;;;;;107.22;25.20;;;1.30;99.90;;;;;;5112756;28;20164;-50
2022/01/11 04:48:19;;;;;;;94.80;25.98;;;1.30;99.90;;;;;;5112409;28;20168;-50
2022/01/11 04:50:45;;;;;;;84.15;23.90;;;1.40;99.90;;;;;;5112546;28;20169;-50
2022/01/11 04:53:11;;;;;;;97.97;25.05;;;1.50;99.90;;;;;;5112363;28;20535;-50
2022/01/11 04:55:37;;;;;;;75.15;23.38;;;1.50;99.90;;;;;;5112319;28;20204;-50
2022/01/11 04:58:03;;;;;;;52.95;20.02;;;1.30;99.90;;;;;;5112610;28;20582;-50
2022/01/11 05:00:28;;;;;;;57.35;20.20;;;1.40;99.90;;;;;;5112756;28;20252;-50
2022/01/11 05:02:59;;;;;;;86.32;22.30;;;1.40;99.90;;;;;;5112268;28;20569;-51
2022/01/11 05:05:27;;;;;;;50.17;20.63;;;1.40;99.90;;;;;;5112523;28;20181;-51
2022/01/11 05:07:53;;;;;;;76.50;21.52;;;1.50;99.90;;;;;;5112161;28;20701;-51
2022/01/11 05:10:18;;;;;;;58.10;19.15;;;1.30;99.90;;;;;;5112246;28;20169;-51
2022/01/11 05:12:44;;;;;;;81.95;21.85;;;1.10;99.90;;;;;;5112128;28;20219;-51
2022/01/11 05:15:11;;;;;;;70.05;20.50;;;1.20;99.90;;;;;;5112059;28;20200;-50
2022/01/11 05:17:37;;;;;;;69.15;20.42;;;1.20;99.90;;;;;;5112168;28;20171;-50
2022/01/11 05:20:05;;;;;;;66.30;21.40;;;1.20;99.90;;;;;;5112477;28;20530;-50
2022/01/11 05:22:30;;;;;;;79.90;23.08;;;1.20;99.90;;;;;;5112690;28;20161;-50
2022/01/11 05:24:56;;;;;;;105.97;21.55;;;1.20;99.90;;;;;;5112028;28;20176;-50
2022/01/11 05:27:21;;;;;;;84.70;20.45;;;1.20;99.90;;;;;;5112088;28;20597;-50
2022/01/11 05:29:47;;;;;;;101.35;22.10;;;1.10;99.90;;;;;;5112023;28;20572;-50
2022/01/11 05:32:13;;;;;;;87.10;25.88;;;1.10;99.90;;;;;;5111942;28;20164;-50
2022/01/11 05:34:38;;;;;;;72.65;22.42;;;1.20;99.90;;;;;;5111858;28;20204;-50
2022/01/11 05:37:04;;;;;;;93.18;22.70;;;1.20;99.90;;;;;;5093760;28;20624;-50
2022/01/11 05:39:29;;;;;;;112.30;21.95;;;1.30;99.90;;;;;;5112195;28;20188;-50
2022/01/11 05:41:55;;;;;;;77.55;21.85;;;1.20;99.90;;;;;;5111944;28;20200;-51
2022/01/11 05:44:22;;;;;;;100.07;22.25;;;1.10;99.90;;;;;;5111879;28;20170;-50
2022/01/11 05:46:48;;;;;;;105.00;21.10;;;1.10;99.90;;;;;;5115569;28;20172;-50
2022/01/11 05:49:13;;;;;;;67.93;20.55;;;1.20;99.90;;;;;;5115880;28;20519;-50
2022/01/11 05:51:39;;;;;;;164.93;26.45;;;1.20;99.90;;;;;;5115688;28;20156;-49
2022/01/11 05:54:04;;;;;;;197.52;26.23;;;1.10;99.90;;;;;;5097223;28;20585;-50
2022/01/11 05:56:30;;;;;;;171.98;24.42;;;1.00;99.90;;;;;;5114917;28;20171;-50
2022/01/11 05:58:55;;;;;;;143.60;23.13;;;1.00;99.90;;;;;;5097123;28;20620;-50
2022/01/11 06:01:23;;;;;;;165.43;25.90;;;1.00;99.90;;;;;;5115327;28;20629;-50
2022/01/11 06:03:48;;;;;;;137.32;24.52;;;1.00;99.90;;;;;;5097042;28;20174;-50
2022/01/11 06:06:14;;;;;;;153.73;25.70;;;1.00;99.90;;;;;;5115300;28;20248;-50
2022/01/11 06:08:40;;;;;;;97.07;23.75;;;1.00;99.90;;;;;;5115300;28;20169;-50
2022/01/11 06:11:06;;;;;;;116.38;24.33;;;1.20;99.90;;;;;;5115235;28;20240;-50
2022/01/11 06:13:32;;;;;;;106.32;23.95;;;1.10;99.90;;;;;;5115299;28;20212;-51
2022/01/11 06:15:57;;;;;;;114.68;25.38;;;1.10;99.90;;;;;;5115442;28;20235;-51
2022/01/11 06:18:23;;;;;;;92.63;24.15;;;1.10;99.90;;;;;;5115119;28;20251;-50
2022/01/11 06:20:48;;;;;;;79.07;22.38;;;1.10;99.90;;;;;;5115065;28;20234;-51
2022/01/11 06:23:14;;;;;;;115.43;23.90;;;1.10;99.90;;;;;;5114993;28;20168;-51
2022/01/11 06:25:40;;;;;;;115.18;24.13;;;1.10;99.90;;;;;;5114941;28;20248;-51
2022/01/11 06:28:05;;;;;;;136.80;25.90;;;1.10;99.90;;;;;;5115192;28;20582;-51
2022/01/11 06:30:31;;;;;;;74.85;22.40;;;1.10;99.90;;;;;;5115077;28;20168;-50
2022/01/11 06:32:56;;;;;;;113.28;21.92;;;1.20;99.90;;;;;;5114755;28;20188;-50
2022/01/11 06:35:23;;;;;;;203.35;26.73;;;1.10;99.90;;;;;;5114540;28;20214;-51
2022/01/11 06:37:50;;;;;;;190.93;28.50;;;1.10;99.90;;;;;;5114633;28;20213;-49
2022/01/11 06:40:18;;;;;;;72.88;21.30;;;1.10;99.90;;;;;;5114636;28;20177;-51
2022/01/11 06:42:45;;;;;;;63.45;20.80;;;1.10;99.90;;;;;;5114595;28;20567;-50
2022/01/11 06:45:11;;;;;;;93.30;19.73;;;1.10;99.90;;;;;;5114455;28;20169;-50
2022/01/11 06:47:37;;;;;;;91.05;22.55;;;1.10;99.90;;;;;;5114514;28;20172;-50
2022/01/11 06:50:04;;;;;;;100.10;22.83;;;1.10;99.90;;;;;;5114315;28;20169;-49
2022/01/11 06:52:29;;;;;;;99.03;23.65;;;1.10;99.90;;;;;;5114702;28;20165;-51
2022/01/11 06:54:55;;;;;;;95.75;22.58;;;1.20;99.90;;;;;;5114457;28;20200;-50
2022/01/11 06:57:21;;;;;;;80.50;22.65;;;1.20;99.90;;;;;;5113303;28;20598;-51
2022/01/11 06:59:46;;;;;;;122.15;27.25;;;1.30;99.90;;;;;;5114216;28;20161;-50
2022/01/11 07:02:12;;;;;;;106.28;23.23;;;1.40;99.90;;;;;;5114211;28;20168;-50
2022/01/11 07:04:37;;;;;;;155.25;24.38;;;1.30;99.90;;;;;;5114126;28;20289;-50
2022/01/11 07:07:05;;;;;;;158.05;23.23;;;1.20;99.90;;;;;;5114073;28;20522;-51
2022/01/11 07:09:31;;;;;;;141.02;21.90;;;1.00;99.90;;;;;;5114592;28;20204;-51
2022/01/11 07:11:57;;;;;;;151.25;23.27;;;1.00;99.90;;;;;;5113812;28;20202;-51
2022/01/11 07:14:22;;;;;;;133.23;25.65;;;1.00;99.90;;;;;;5113873;28;20622;-51
2022/01/11 07:16:48;;;;;;;106.45;21.67;;;1.00;99.90;;;;;;5095682;28;20229;-51
2022/01/11 07:19:18;;;;;;;160.23;22.65;;;1.00;99.90;;;;;;5114024;28;20168;-51
2022/01/11 07:21:44;;;;;;;131.25;22.35;;;1.00;99.90;;;;;;5113767;28;20172;-51
2022/01/11 07:24:14;;;;;;;123.72;23.52;;;1.00;99.90;;;;;;5113750;28;20168;-51
2022/01/11 07:26:41;;;;;;;112.97;22.15;;;1.10;99.90;;;;;;5113729;28;20256;-50
2022/01/11 07:29:07;;;;;;;166.65;24.08;;;1.00;99.90;;;;;;5113617;28;20161;-50
2022/01/11 07:31:38;;;;;;;147.00;26.77;;;1.00;99.90;;;;;;5113725;28;20172;-50
2022/01/11 07:34:05;;;;;;;111.18;22.95;;;1.00;99.90;;;;;;5113464;28;20169;-51
2022/01/11 07:36:31;;;;;;;98.25;19.98;;;1.10;99.90;;;;;;5113791;28;20161;-51
2022/01/11 07:38:57;;;;;;;154.15;25.05;;;1.00;99.90;;;;;;5113451;28;20501;-51
2022/01/11 07:41:22;;;;;;;112.20;23.02;;;1.00;99.90;;;;;;5113494;28;20209;-51
2022/01/11 07:43:48;;;;;;;83.22;20.50;;;1.00;99.90;;;;;;5113596;28;20189;-51
2022/01/11 07:46:14;;;;;;;80.90;21.20;;;1.10;99.90;;;;;;5113538;28;20534;-51
2022/01/11 07:48:39;;;;;;;74.45;20.48;;;1.20;99.90;;;;;;5113386;28;20173;-51
2022/01/11 07:51:05;;;;;;;106.05;22.50;;;1.30;99.90;;;;;;5113162;28;20165;-51
2022/01/11 07:53:31;;;;;;;114.80;23.13;;;1.10;99.90;;;;;;5113514;28;20244;-51
2022/01/11 07:55:56;;;;;;;151.27;22.85;;;1.10;99.90;;;;;;5113114;28;20288;-51
2022/01/11 07:58:22;;;;;;;134.82;24.40;;;0.90;99.90;;;;;;5113087;28;20164;-51
2022/01/11 08:00:47;;;;;;;106.15;19.80;;;0.90;99.90;;;;;;5113056;28;20528;-51
2022/01/11 08:03:13;;;;;;;120.57;23.67;;;0.90;99.90;;;;;;5113266;28;20640;-51
2022/01/11 08:05:38;;;;;;;87.00;22.02;;;0.90;99.90;;;;;;5113051;28;20172;-51
2022/01/11 08:08:05;;;;;;;105.35;26.45;;;0.90;99.90;;;;;;5112805;28;20163;-51
2022/01/11 08:10:30;;;;;;;120.93;29.83;;;0.80;99.90;;;;;;5113154;28;20228;-50
2022/01/11 08:12:56;;;;;;;85.93;23.02;;;0.80;99.90;;;;;;5112704;28;20299;-50
2022/01/11 08:15:21;;;;;;;116.35;27.42;;;1.00;99.90;;;;;;5112682;28;20200;-50
2022/01/11 08:17:47;;;;;;;76.90;21.23;;;0.90;99.90;;;;;;5112698;28;20199;-51
2022/01/11 08:20:14;;;;;;;120.32;22.45;;;0.90;99.90;;;;;;5112779;28;20179;-50
2022/01/11 08:22:39;;;;;;;104.10;23.60;;;0.80;99.90;;;;;;5112728;28;20188;-51
2022/01/11 08:25:06;;;;;;;110.43;23.05;;;0.90;99.90;;;;;;5112970;28;20206;-50
2022/01/11 08:27:33;;;;;;;112.95;25.13;;;1.00;99.90;;;;;;5112965;28;20187;-50
2022/01/11 08:29:59;;;;;;;92.80;22.92;;;1.00;99.90;;;;;;5112849;28;20539;-50
2022/01/11 08:32:25;;;;;;;82.82;24.38;;;1.00;99.90;;;;;;5112603;28;20156;-48
2022/01/11 08:34:51;;;;;;;87.55;24.48;;;1.10;99.90;;;;;;5112468;28;20211;-50
2022/01/11 08:37:17;;;;;;;97.68;25.60;;;1.20;99.90;;;;;;5112378;28;20172;-50
2022/01/11 08:39:43;;;;;;;104.22;25.52;;;1.30;99.90;;;;;;5112563;28;20243;-49
2022/01/11 08:42:12;;;;;;;100.78;27.70;;;1.50;99.90;;;;;;5112739;28;20585;-51
2022/01/11 08:44:38;;;;;;;110.40;22.95;;;1.40;99.90;;;;;;5112280;28;20286;-47
2022/01/11 08:47:04;;;;;;;117.63;24.58;;;1.60;99.90;;;;;;5112297;28;20164;-50
2022/01/11 08:49:30;;;;;;;146.32;27.63;;;1.70;99.90;;;;;;5112567;28;20179;-51
2022/01/11 08:51:55;;;;;;;85.93;21.55;;;1.50;99.90;;;;;;5112461;28;20161;-50
2022/01/11 08:54:24;;;;;;;154.80;24.20;;;1.40;99.90;;;;;;5112446;28;20200;-51
2022/01/11 08:56:55;;;;;;;98.07;26.35;;;1.30;99.90;;;;;;5112524;28;20179;-51
2022/01/11 08:59:21;;;;;;;84.30;21.55;;;1.40;99.90;;;;;;5112525;28;20255;-51
2022/01/11 09:01:48;;;;;;;59.15;19.90;;;1.50;99.90;;;;;;5112425;28;20180;-51
2022/01/11 09:04:13;;;;;;;72.10;22.60;;;1.60;99.90;;;;;;5112208;28;20180;-51
2022/01/11 09:06:39;;;;;;;78.97;22.25;;;1.50;99.90;;;;;;5112143;28;20246;-50
2022/01/11 09:09:04;;;;;;;83.78;23.65;;;1.50;99.90;;;;;;5111811;28;20164;-51
2022/01/11 09:11:30;;;;;;;100.28;24.25;;;1.40;99.90;;;;;;5112482;28;20221;-51
2022/01/11 09:13:58;;;;;;;78.38;24.20;;;1.40;99.90;;;;;;5111910;28;20694;-50
2022/01/11 09:16:24;;;;;;;97.20;22.65;;;1.50;99.90;;;;;;5112080;28;20291;-51
2022/01/11 09:18:50;;;;;;;104.00;22.42;;;1.50;99.90;;;;;;5112374;28;20173;-51
2022/01/11 09:21:20;;;;;;;92.60;23.17;;;1.50;99.90;;;;;;5115116;28;20207;-51
2022/01/11 09:23:45;;;;;;;81.32;21.88;;;1.60;99.90;;;;;;5116429;28;20168;-51
2022/01/11 09:26:11;;;;;;;58.85;24.00;;;1.60;99.90;;;;;;5116239;28;20589;-51
2022/01/11 09:28:36;;;;;;;107.80;25.13;;;1.80;99.90;;;;;;5116086;28;20187;-51
2022/01/11 09:31:02;;;;;;;107.15;26.15;;;1.70;99.90;;;;;;5116089;28;20164;-50
2022/01/11 09:33:28;;;;;;;108.15;26.65;;;1.60;99.90;;;;;;5116512;28;20184;-50
2022/01/11 09:35:53;;;;;;;134.45;27.60;;;1.60;99.90;;;;;;5115833;28;20539;-51
2022/01/11 09:38:19;;;;;;;87.00;25.30;;;1.60;99.90;;;;;;5116449;28;20157;-51
2022/01/11 09:40:45;;;;;;;84.68;29.55;;;1.70;99.90;;;;;;5115701;28;20199;-50
2022/01/11 09:43:12;;;;;;;75.45;28.13;;;1.60;99.90;;;;;;5115819;28;20240;-51
2022/01/11 09:45:38;;;;;;;67.40;26.10;;;1.70;99.90;;;;;;5115932;28;20201;-49
2022/01/11 09:48:04;;;;;;;80.57;25.42;;;1.70;99.90;;;;;;5115623;28;20235;-50
2022/01/11 09:50:29;;;;;;;53.58;22.80;;;1.70;99.90;;;;;;5116046;28;20172;-51
2022/01/11 09:52:56;;;;;;;61.05;25.25;;;1.80;99.90;;;;;;5115814;28;20176;-51
2022/01/11 09:55:22;;;;;;;52.30;21.08;;;1.90;99.90;;;;;;5115530;28;20300;-50
2022/01/11 09:57:49;;;;;;;53.88;20.25;;;2.00;99.90;;;;;;5115495;28;20196;-51
2022/01/11 10:00:15;;;;;;;48.15;21.90;;;2.00;99.90;;;;;;5115695;28;20172;-51
2022/01/11 10:02:42;;;;;;;51.30;23.67;;;2.10;99.90;;;;;;5115460;28;20172;-51
2022/01/11 10:05:10;;;;;;;52.55;20.17;;;2.00;99.90;;;;;;5115610;28;20224;-48
2022/01/11 10:07:40;;;;;;;48.55;19.38;;;2.10;99.90;;;;;;5115533;28;20198;-51
2022/01/11 10:10:20;;;;;;;62.08;23.92;;;2.10;99.90;;;;;;5115277;28;20161;-51
2022/01/11 10:12:55;;;;;;;86.45;31.02;;;2.10;99.90;;;;;;5114900;28;20289;-51
2022/01/11 10:15:29;;;;;;;54.03;19.35;;;2.10;99.90;;;;;;5114912;28;20291;-50
2022/01/11 10:17:55;;;;;;;59.58;23.77;;;2.10;99.90;;;;;;5114764;28;20160;-50
2022/01/11 10:20:22;;;;;;;62.83;25.85;;;2.20;99.90;;;;;;5114976;28;20202;-50
2022/01/11 10:23:03;;;;;;;89.15;24.90;;;2.30;99.90;;;;;;5114907;28;20636;-49
2022/01/11 10:25:31;;;;;;;59.85;21.25;;;2.30;99.90;;;;;;5115254;28;20255;-51
2022/01/11 10:28:05;;;;;;;62.50;21.42;;;2.30;99.90;;;;;;5114824;28;20587;-51
2022/01/11 10:30:33;;;;;;;51.55;21.85;;;2.10;99.90;;;;;;5115384;28;20164;-51
2022/01/11 10:33:01;;;;;;;64.88;27.48;;;2.10;99.90;;;;;;5115219;28;20196;-52
2022/01/11 10:35:42;;;;;;;61.60;26.48;;;2.20;99.90;;;;;;5114963;28;20701;-52
2022/01/11 10:38:09;;;;;;;53.13;25.42;;;2.30;99.90;;;;;;5115042;28;20174;-51
2022/01/11 10:40:42;;;;;;;42.75;19.85;;;2.30;99.90;;;;;;5114706;28;20164;-51
2022/01/11 10:43:15;;;;;;;59.78;22.95;;;2.30;99.90;;;;;;5114682;28;20167;-51
2022/01/11 10:45:44;;;;;;;53.40;24.33;;;2.20;99.90;;;;;;5114510;28;20196;-51
2022/01/11 10:48:15;;;;;;;47.55;20.05;;;2.20;99.90;;;;;;5114448;28;20198;-51
2022/01/11 10:50:47;;;;;;;51.30;20.80;;;2.20;99.90;;;;;;5096038;28;20197;-50
2022/01/11 10:53:13;;;;;;;68.93;22.25;;;2.30;99.90;;;;;;5114303;28;20188;-51
2022/01/11 10:55:39;;;;;;;51.60;22.48;;;2.20;99.90;;;;;;5114499;28;20565;-51
2022/01/11 10:58:10;;;;;;;57.72;22.23;;;2.20;99.90;;;;;;5114289;28;20165;-51
2022/01/11 11:00:39;;;;;;;47.53;21.85;;;2.20;99.90;;;;;;5114857;28;20172;-51
2022/01/11 11:03:14;;;;;;;40.40;20.38;;;2.30;99.90;;;;;;5114124;28;20209;-51
2022/01/11 11:05:47;;;;;;;41.20;21.38;;;2.50;99.90;;;;;;5114035;28;20281;-51
2022/01/11 11:08:20;;;;;;;68.35;21.13;;;2.60;99.90;;;;;;5114085;28;20161;-51
2022/01/11 11:10:55;;;;;;;53.13;20.48;;;2.60;99.90;;;;;;5113940;28;20169;-51
2022/01/11 11:13:22;;;;;;;75.75;20.95;;;2.70;99.90;;;;;;5113706;28;20207;-51
2022/01/11 11:15:50;;;;;;;54.83;27.48;;;2.60;99.90;;;;;;5113716;28;20208;-51
2022/01/11 11:18:35;;;;;;;49.30;20.48;;;2.80;99.90;;;;;;5095715;28;20534;-51
2022/01/11 11:21:25;;;;;;;77.32;22.02;;;2.80;99.90;;;;;;5114088;28;20200;-51
2022/01/11 11:23:53;;;;;;;47.97;21.63;;;2.70;99.90;;;;;;5113439;28;20172;-51
2022/01/11 11:26:21;;;;;;;35.90;19.05;;;2.70;99.90;;;;;;5113767;28;20164;-50
2022/01/11 11:28:48;;;;;;;48.92;22.85;;;2.60;99.90;;;;;;5114038;28;20177;-51
2022/01/11 11:31:14;;;;;;;57.60;27.23;;;2.70;99.90;;;;;;5113768;28;20580;-51
2022/01/11 11:33:41;;;;;;;54.53;23.77;;;2.80;99.90;;;;;;5113801;28;20213;-51
2022/01/11 11:36:11;;;;;;;67.30;30.08;;;2.90;99.90;;;;;;5113501;28;20284;-51
2022/01/11 11:38:43;;;;;;;94.70;43.15;;;3.00;99.90;;;;;;5095330;28;20241;-50
2022/01/11 11:41:09;;;;;;;87.00;40.20;;;3.00;99.90;;;;;;5113474;28;20175;-51
2022/01/11 11:43:35;;;;;;;71.47;40.08;;;3.10;99.90;;;;;;5112961;28;20176;-51
2022/01/11 11:46:02;;;;;;;94.70;36.33;;;3.20;99.90;;;;;;5113844;28;20172;-51
2022/01/11 11:48:28;;;;;;;66.82;30.83;;;3.20;99.90;;;;;;5113379;28;20636;-51
2022/01/11 11:51:03;;;;;;;59.35;29.75;;;3.00;99.90;;;;;;5113162;28;20164;-51
2022/01/11 11:53:39;;;;;;;58.92;26.92;;;3.10;99.90;;;;;;5113294;28;20156;-51
2022/01/11 11:56:20;;;;;;;73.65;27.63;;;3.10;99.90;;;;;;5112830;28;20542;-51
2022/01/11 11:58:50;;;;;;;88.38;28.10;;;3.20;99.90;;;;;;5113057;28;20651;-51
2022/01/11 12:01:41;;;;;;;84.88;29.20;;;3.30;99.90;;;;;;5113112;28;20531;-51
2022/01/11 12:04:31;;;;;;;73.70;31.83;;;3.30;99.90;;;;;;5113075;28;20171;-51
2022/01/11 12:06:57;;;;;;;70.82;29.42;;;3.20;99.90;;;;;;5111812;28;20200;-51
2022/01/11 12:09:29;;;;;;;66.03;30.15;;;3.30;99.90;;;;;;5094682;28;20644;-51
2022/01/11 12:11:56;;;;;;;66.07;31.77;;;3.10;99.90;;;;;;5113039;28;20181;-51
2022/01/11 12:14:42;;;;;;;77.00;34.15;;;3.10;99.90;;;;;;5112865;28;20165;-51
2022/01/11 12:17:18;;;;;;;58.33;27.60;;;3.00;99.90;;;;;;5112582;28;20550;-51
2022/01/11 12:19:46;;;;;;;65.28;29.35;;;3.00;99.90;;;;;;5094726;28;20167;-51
2022/01/11 12:22:11;;;;;;;61.67;28.92;;;2.90;99.90;;;;;;5113069;28;20169;-51
2022/01/11 12:24:39;;;;;;;60.15;28.00;;;3.00;99.90;;;;;;5112804;28;20642;-51
2022/01/11 12:27:07;;;;;;;58.17;26.40;;;2.90;99.90;;;;;;5112881;28;20580;-52
2022/01/11 12:29:32;;;;;;;58.95;28.10;;;2.90;99.90;;;;;;5112600;28;20173;-50
2022/01/11 12:32:02;;;;;;;57.95;27.85;;;2.80;99.90;;;;;;5113001;28;20172;-51
2022/01/11 12:34:48;;;;;;;62.70;30.50;;;2.90;99.90;;;;;;5112802;28;20715;-52
2022/01/11 12:37:27;;;;;;;60.08;28.95;;;2.80;99.90;;;;;;5112757;28;20172;-52
2022/01/11 12:40:20;;;;;;;53.47;26.95;;;2.80;99.90;;;;;;5112875;28;20164;-51